sensor_id;sensor_type;location;lat;lon;timestamp;P1;durP1;ratioP1;P2;durP2;ratioP2
21175;SDS011;10746;50.178;8.186;2022-11-20T00:00:38;18.30;;;9.57;;
21175;SDS011;10746;50.178;8.186;2022-11-20T00:03:05;19.17;;;9.90;;
21175;SDS011;10746;50.178;8.186;2022-11-20T00:05:32;17.40;;;9.10;;
21175;SDS011;10746;50.178;8.186;2022-11-20T00:08:00;21.50;;;10.20;;
21175;SDS011;10746;50.178;8.186;2022-11-20T00:10:27;19.07;;;9.60;;
21175;SDS011;10746;50.178;8.186;2022-11-20T00:12:54;16.17;;;9.20;;
21175;SDS011;10746;50.178;8.186;2022-11-20T00:17:55;19.63;;;9.73;;
21175;SDS011;10746;50.178;8.186;2022-11-20T00:20:21;18.63;;;9.57;;
21175;SDS011;10746;50.178;8.186;2022-11-20T00:22:49;20.73;;;9.87;;
21175;SDS011;10746;50.178;8.186;2022-11-20T00:25:17;19.33;;;9.57;;
21175;SDS011;10746;50.178;8.186;2022-11-20T00:27:44;18.33;;;9.03;;
21175;SDS011;10746;50.178;8.186;2022-11-20T00:30:11;18.90;;;9.40;;
21175;SDS011;10746;50.178;8.186;2022-11-20T00:32:37;16.90;;;8.77;;
21175;SDS011;10746;50.178;8.186;2022-11-20T00:35:05;19.03;;;9.17;;
21175;SDS011;10746;50.178;8.186;2022-11-20T00:37:31;16.87;;;9.00;;
21175;SDS011;10746;50.178;8.186;2022-11-20T00:39:58;16.10;;;8.97;;
21175;SDS011;10746;50.178;8.186;2022-11-20T00:42:27;17.20;;;9.13;;
21175;SDS011;10746;50.178;8.186;2022-11-20T00:44:53;17.57;;;8.47;;
21175;SDS011;10746;50.178;8.186;2022-11-20T00:47:20;15.00;;;8.20;;
21175;SDS011;10746;50.178;8.186;2022-11-20T00:49:47;15.80;;;7.73;;
21175;SDS011;10746;50.178;8.186;2022-11-20T00:52:14;16.07;;;8.53;;
21175;SDS011;10746;50.178;8.186;2022-11-20T00:54:40;17.00;;;8.37;;
21175;SDS011;10746;50.178;8.186;2022-11-20T00:57:07;14.80;;;8.23;;
21175;SDS011;10746;50.178;8.186;2022-11-20T00:59:35;15.63;;;8.43;;
21175;SDS011;10746;50.178;8.186;2022-11-20T01:02:02;15.90;;;8.13;;
21175;SDS011;10746;50.178;8.186;2022-11-20T01:04:29;14.67;;;8.20;;
21175;SDS011;10746;50.178;8.186;2022-11-20T01:06:56;14.80;;;8.67;;
21175;SDS011;10746;50.178;8.186;2022-11-20T01:09:23;14.63;;;7.93;;
21175;SDS011;10746;50.178;8.186;2022-11-20T01:11:49;16.07;;;8.23;;
21175;SDS011;10746;50.178;8.186;2022-11-20T01:14:17;16.17;;;8.80;;
21175;SDS011;10746;50.178;8.186;2022-11-20T01:16:47;18.10;;;8.93;;
21175;SDS011;10746;50.178;8.186;2022-11-20T01:19:15;16.63;;;8.90;;
21175;SDS011;10746;50.178;8.186;2022-11-20T01:21:45;19.13;;;9.30;;
21175;SDS011;10746;50.178;8.186;2022-11-20T01:24:12;15.97;;;8.67;;
21175;SDS011;10746;50.178;8.186;2022-11-20T01:26:41;16.30;;;8.40;;
21175;SDS011;10746;50.178;8.186;2022-11-20T01:29:09;18.30;;;8.97;;
21175;SDS011;10746;50.178;8.186;2022-11-20T01:31:40;16.27;;;8.53;;
21175;SDS011;10746;50.178;8.186;2022-11-20T01:34:10;18.47;;;8.77;;
21175;SDS011;10746;50.178;8.186;2022-11-20T01:36:39;16.33;;;8.17;;
21175;SDS011;10746;50.178;8.186;2022-11-20T01:39:07;15.80;;;8.27;;
21175;SDS011;10746;50.178;8.186;2022-11-20T01:41:37;18.17;;;8.50;;
21175;SDS011;10746;50.178;8.186;2022-11-20T01:44:22;18.77;;;8.77;;
21175;SDS011;10746;50.178;8.186;2022-11-20T01:47:04;17.03;;;8.60;;
21175;SDS011;10746;50.178;8.186;2022-11-20T01:49:36;15.20;;;8.10;;
21175;SDS011;10746;50.178;8.186;2022-11-20T01:52:07;17.03;;;9.00;;
21175;SDS011;10746;50.178;8.186;2022-11-20T01:54:40;15.67;;;8.10;;
21175;SDS011;10746;50.178;8.186;2022-11-20T01:57:10;16.37;;;8.80;;
21175;SDS011;10746;50.178;8.186;2022-11-20T01:59:40;18.43;;;9.33;;
21175;SDS011;10746;50.178;8.186;2022-11-20T02:02:10;16.57;;;8.77;;
21175;SDS011;10746;50.178;8.186;2022-11-20T02:04:39;14.70;;;8.27;;
21175;SDS011;10746;50.178;8.186;2022-11-20T02:07:05;17.23;;;8.73;;
21175;SDS011;10746;50.178;8.186;2022-11-20T02:09:33;16.70;;;8.57;;
21175;SDS011;10746;50.178;8.186;2022-11-20T02:12:00;15.70;;;7.70;;
21175;SDS011;10746;50.178;8.186;2022-11-20T02:14:26;13.73;;;7.37;;
21175;SDS011;10746;50.178;8.186;2022-11-20T02:16:54;15.13;;;7.80;;
21175;SDS011;10746;50.178;8.186;2022-11-20T02:19:23;14.23;;;7.77;;
21175;SDS011;10746;50.178;8.186;2022-11-20T02:21:56;13.97;;;7.77;;
21175;SDS011;10746;50.178;8.186;2022-11-20T02:24:28;14.70;;;7.80;;
21175;SDS011;10746;50.178;8.186;2022-11-20T02:26:57;11.47;;;6.93;;
21175;SDS011;10746;50.178;8.186;2022-11-20T02:29:31;11.83;;;6.93;;
21175;SDS011;10746;50.178;8.186;2022-11-20T02:32:00;13.93;;;7.70;;
21175;SDS011;10746;50.178;8.186;2022-11-20T02:34:28;13.53;;;7.47;;
21175;SDS011;10746;50.178;8.186;2022-11-20T02:36:54;11.57;;;6.87;;
21175;SDS011;10746;50.178;8.186;2022-11-20T02:39:24;13.00;;;7.17;;
21175;SDS011;10746;50.178;8.186;2022-11-20T02:41:53;13.20;;;6.93;;
21175;SDS011;10746;50.178;8.186;2022-11-20T02:44:22;10.27;;;6.90;;
21175;SDS011;10746;50.178;8.186;2022-11-20T02:46:49;11.27;;;6.33;;
21175;SDS011;10746;50.178;8.186;2022-11-20T02:49:16;11.40;;;6.17;;
21175;SDS011;10746;50.178;8.186;2022-11-20T02:51:43;12.60;;;7.13;;
21175;SDS011;10746;50.178;8.186;2022-11-20T02:54:10;10.27;;;6.47;;
21175;SDS011;10746;50.178;8.186;2022-11-20T02:56:37;13.10;;;7.33;;
21175;SDS011;10746;50.178;8.186;2022-11-20T02:59:05;12.07;;;6.70;;
21175;SDS011;10746;50.178;8.186;2022-11-20T03:01:32;11.83;;;6.83;;
21175;SDS011;10746;50.178;8.186;2022-11-20T03:03:59;12.67;;;7.27;;
21175;SDS011;10746;50.178;8.186;2022-11-20T03:06:26;12.60;;;6.57;;
21175;SDS011;10746;50.178;8.186;2022-11-20T03:08:53;11.17;;;7.03;;
21175;SDS011;10746;50.178;8.186;2022-11-20T03:11:20;12.30;;;7.37;;
21175;SDS011;10746;50.178;8.186;2022-11-20T03:13:47;13.10;;;7.47;;
21175;SDS011;10746;50.178;8.186;2022-11-20T03:16:16;12.97;;;6.67;;
21175;SDS011;10746;50.178;8.186;2022-11-20T03:18:44;11.67;;;6.87;;
21175;SDS011;10746;50.178;8.186;2022-11-20T03:21:12;11.13;;;6.40;;
21175;SDS011;10746;50.178;8.186;2022-11-20T03:23:39;11.00;;;6.17;;
21175;SDS011;10746;50.178;8.186;2022-11-20T03:26:08;12.40;;;6.47;;
21175;SDS011;10746;50.178;8.186;2022-11-20T03:28:39;12.17;;;6.70;;
21175;SDS011;10746;50.178;8.186;2022-11-20T03:31:07;10.60;;;5.73;;
21175;SDS011;10746;50.178;8.186;2022-11-20T03:33:36;13.17;;;6.73;;
21175;SDS011;10746;50.178;8.186;2022-11-20T03:36:04;12.23;;;6.53;;
21175;SDS011;10746;50.178;8.186;2022-11-20T03:38:33;13.43;;;6.83;;
21175;SDS011;10746;50.178;8.186;2022-11-20T03:41:00;14.00;;;7.20;;
21175;SDS011;10746;50.178;8.186;2022-11-20T03:43:28;12.90;;;6.50;;
21175;SDS011;10746;50.178;8.186;2022-11-20T03:45:55;14.30;;;7.07;;
21175;SDS011;10746;50.178;8.186;2022-11-20T03:48:22;14.40;;;7.53;;
21175;SDS011;10746;50.178;8.186;2022-11-20T03:50:50;15.33;;;7.40;;
21175;SDS011;10746;50.178;8.186;2022-11-20T03:53:18;16.90;;;7.60;;
21175;SDS011;10746;50.178;8.186;2022-11-20T03:55:45;14.30;;;7.40;;
21175;SDS011;10746;50.178;8.186;2022-11-20T03:58:17;16.07;;;7.57;;
21175;SDS011;10746;50.178;8.186;2022-11-20T04:00:44;30.63;;;8.70;;
21175;SDS011;10746;50.178;8.186;2022-11-20T04:03:10;21.67;;;7.83;;
21175;SDS011;10746;50.178;8.186;2022-11-20T04:05:37;19.53;;;7.57;;
21175;SDS011;10746;50.178;8.186;2022-11-20T04:08:06;20.43;;;7.83;;
21175;SDS011;10746;50.178;8.186;2022-11-20T04:10:32;17.70;;;7.80;;
21175;SDS011;10746;50.178;8.186;2022-11-20T04:12:59;14.97;;;7.30;;
21175;SDS011;10746;50.178;8.186;2022-11-20T04:15:26;14.70;;;7.33;;
21175;SDS011;10746;50.178;8.186;2022-11-20T04:17:53;15.93;;;7.27;;
21175;SDS011;10746;50.178;8.186;2022-11-20T04:20:20;16.00;;;6.80;;
21175;SDS011;10746;50.178;8.186;2022-11-20T04:22:47;15.00;;;7.33;;
21175;SDS011;10746;50.178;8.186;2022-11-20T04:25:15;18.80;;;7.40;;
21175;SDS011;10746;50.178;8.186;2022-11-20T04:27:42;17.90;;;7.07;;
21175;SDS011;10746;50.178;8.186;2022-11-20T04:30:10;23.93;;;7.87;;
21175;SDS011;10746;50.178;8.186;2022-11-20T04:32:37;19.33;;;7.37;;
21175;SDS011;10746;50.178;8.186;2022-11-20T04:35:04;23.97;;;7.77;;
21175;SDS011;10746;50.178;8.186;2022-11-20T04:37:31;20.70;;;6.93;;
21175;SDS011;10746;50.178;8.186;2022-11-20T04:39:58;17.07;;;7.83;;
21175;SDS011;10746;50.178;8.186;2022-11-20T04:42:27;27.90;;;8.07;;
21175;SDS011;10746;50.178;8.186;2022-11-20T04:44:57;32.27;;;7.57;;
21175;SDS011;10746;50.178;8.186;2022-11-20T04:47:24;25.30;;;8.53;;
21175;SDS011;10746;50.178;8.186;2022-11-20T04:49:51;71.27;;;10.77;;
21175;SDS011;10746;50.178;8.186;2022-11-20T04:52:17;169.33;;;13.20;;
21175;SDS011;10746;50.178;8.186;2022-11-20T04:54:44;164.40;;;13.73;;
21175;SDS011;10746;50.178;8.186;2022-11-20T04:57:12;62.97;;;8.60;;
21175;SDS011;10746;50.178;8.186;2022-11-20T04:59:41;62.37;;;9.80;;
21175;SDS011;10746;50.178;8.186;2022-11-20T05:02:09;46.80;;;8.43;;
21175;SDS011;10746;50.178;8.186;2022-11-20T05:04:36;128.77;;;12.47;;
21175;SDS011;10746;50.178;8.186;2022-11-20T05:07:02;66.33;;;9.57;;
21175;SDS011;10746;50.178;8.186;2022-11-20T05:09:30;56.73;;;8.83;;
21175;SDS011;10746;50.178;8.186;2022-11-20T05:11:57;58.43;;;9.63;;
21175;SDS011;10746;50.178;8.186;2022-11-20T05:14:23;21.30;;;7.50;;
21175;SDS011;10746;50.178;8.186;2022-11-20T05:16:52;63.13;;;9.83;;
21175;SDS011;10746;50.178;8.186;2022-11-20T05:19:18;47.03;;;8.20;;
21175;SDS011;10746;50.178;8.186;2022-11-20T05:21:45;208.93;;;15.80;;
21175;SDS011;10746;50.178;8.186;2022-11-20T05:24:12;96.87;;;10.07;;
21175;SDS011;10746;50.178;8.186;2022-11-20T05:26:39;141.53;;;11.83;;
21175;SDS011;10746;50.178;8.186;2022-11-20T05:29:06;99.00;;;10.77;;
21175;SDS011;10746;50.178;8.186;2022-11-20T05:31:33;67.83;;;8.93;;
21175;SDS011;10746;50.178;8.186;2022-11-20T05:34:01;63.57;;;9.53;;
21175;SDS011;10746;50.178;8.186;2022-11-20T05:36:27;80.20;;;9.00;;
21175;SDS011;10746;50.178;8.186;2022-11-20T05:38:55;71.57;;;10.23;;
21175;SDS011;10746;50.178;8.186;2022-11-20T05:41:22;81.47;;;9.30;;
21175;SDS011;10746;50.178;8.186;2022-11-20T05:43:49;26.03;;;8.23;;
21175;SDS011;10746;50.178;8.186;2022-11-20T05:46:17;35.17;;;8.07;;
21175;SDS011;10746;50.178;8.186;2022-11-20T05:48:45;40.57;;;7.97;;
21175;SDS011;10746;50.178;8.186;2022-11-20T05:51:15;81.40;;;10.50;;
21175;SDS011;10746;50.178;8.186;2022-11-20T05:53:43;93.50;;;11.73;;
21175;SDS011;10746;50.178;8.186;2022-11-20T05:56:11;96.47;;;12.60;;
21175;SDS011;10746;50.178;8.186;2022-11-20T05:58:39;128.60;;;13.30;;
21175;SDS011;10746;50.178;8.186;2022-11-20T06:01:07;66.53;;;10.03;;
21175;SDS011;10746;50.178;8.186;2022-11-20T06:03:36;37.53;;;7.97;;
21175;SDS011;10746;50.178;8.186;2022-11-20T06:06:04;155.07;;;15.40;;
21175;SDS011;10746;50.178;8.186;2022-11-20T06:08:34;187.20;;;14.53;;
21175;SDS011;10746;50.178;8.186;2022-11-20T06:11:04;71.40;;;9.13;;
21175;SDS011;10746;50.178;8.186;2022-11-20T06:13:31;121.70;;;11.93;;
21175;SDS011;10746;50.178;8.186;2022-11-20T06:15:58;134.60;;;11.63;;
21175;SDS011;10746;50.178;8.186;2022-11-20T06:18:25;206.67;;;14.13;;
21175;SDS011;10746;50.178;8.186;2022-11-20T06:20:58;158.67;;;14.93;;
21175;SDS011;10746;50.178;8.186;2022-11-20T06:23:27;144.87;;;10.73;;
21175;SDS011;10746;50.178;8.186;2022-11-20T06:25:56;79.57;;;8.77;;
21175;SDS011;10746;50.178;8.186;2022-11-20T06:28:23;45.80;;;8.30;;
21175;SDS011;10746;50.178;8.186;2022-11-20T06:30:50;69.07;;;8.93;;
21175;SDS011;10746;50.178;8.186;2022-11-20T06:33:17;71.20;;;8.20;;
21175;SDS011;10746;50.178;8.186;2022-11-20T06:35:44;131.67;;;12.77;;
21175;SDS011;10746;50.178;8.186;2022-11-20T06:38:10;79.30;;;9.50;;
21175;SDS011;10746;50.178;8.186;2022-11-20T06:40:39;93.80;;;9.53;;
21175;SDS011;10746;50.178;8.186;2022-11-20T06:43:07;56.53;;;9.13;;
21175;SDS011;10746;50.178;8.186;2022-11-20T06:45:34;158.53;;;12.50;;
21175;SDS011;10746;50.178;8.186;2022-11-20T06:48:02;102.77;;;10.87;;
21175;SDS011;10746;50.178;8.186;2022-11-20T06:50:29;125.77;;;11.20;;
21175;SDS011;10746;50.178;8.186;2022-11-20T06:52:56;76.50;;;9.43;;
21175;SDS011;10746;50.178;8.186;2022-11-20T06:55:22;132.37;;;10.40;;
21175;SDS011;10746;50.178;8.186;2022-11-20T06:57:50;139.67;;;12.07;;
21175;SDS011;10746;50.178;8.186;2022-11-20T07:00:18;50.50;;;8.20;;
21175;SDS011;10746;50.178;8.186;2022-11-20T07:02:45;79.10;;;8.60;;
21175;SDS011;10746;50.178;8.186;2022-11-20T07:05:12;47.00;;;7.57;;
21175;SDS011;10746;50.178;8.186;2022-11-20T07:07:39;26.53;;;6.77;;
21175;SDS011;10746;50.178;8.186;2022-11-20T07:10:06;42.80;;;6.93;;
21175;SDS011;10746;50.178;8.186;2022-11-20T07:12:33;92.20;;;9.67;;
21175;SDS011;10746;50.178;8.186;2022-11-20T07:15:00;124.33;;;10.37;;
21175;SDS011;10746;50.178;8.186;2022-11-20T07:17:28;51.30;;;7.57;;
21175;SDS011;10746;50.178;8.186;2022-11-20T07:19:54;57.53;;;7.63;;
21175;SDS011;10746;50.178;8.186;2022-11-20T07:22:21;51.23;;;7.90;;
21175;SDS011;10746;50.178;8.186;2022-11-20T07:24:48;47.60;;;7.03;;
21175;SDS011;10746;50.178;8.186;2022-11-20T07:27:15;43.00;;;7.83;;
21175;SDS011;10746;50.178;8.186;2022-11-20T07:29:41;95.93;;;9.67;;
21175;SDS011;10746;50.178;8.186;2022-11-20T07:32:08;114.95;;;11.80;;
21175;SDS011;10746;50.178;8.186;2022-11-20T07:34:36;121.07;;;12.50;;
21175;SDS011;10746;50.178;8.186;2022-11-20T07:37:03;52.67;;;7.93;;
21175;SDS011;10746;50.178;8.186;2022-11-20T07:39:30;94.80;;;8.70;;
21175;SDS011;10746;50.178;8.186;2022-11-20T07:41:56;67.27;;;8.43;;
21175;SDS011;10746;50.178;8.186;2022-11-20T07:44:23;13.10;;;5.97;;
21175;SDS011;10746;50.178;8.186;2022-11-20T07:46:50;68.70;;;9.10;;
21175;SDS011;10746;50.178;8.186;2022-11-20T07:49:17;128.87;;;11.00;;
21175;SDS011;10746;50.178;8.186;2022-11-20T07:51:45;146.93;;;11.93;;
21175;SDS011;10746;50.178;8.186;2022-11-20T07:54:12;85.73;;;9.23;;
21175;SDS011;10746;50.178;8.186;2022-11-20T07:56:38;35.40;;;6.77;;
21175;SDS011;10746;50.178;8.186;2022-11-20T07:59:05;65.50;;;8.83;;
21175;SDS011;10746;50.178;8.186;2022-11-20T08:01:32;96.10;;;10.20;;
21175;SDS011;10746;50.178;8.186;2022-11-20T08:03:59;74.97;;;8.90;;
21175;SDS011;10746;50.178;8.186;2022-11-20T08:06:25;25.57;;;6.43;;
21175;SDS011;10746;50.178;8.186;2022-11-20T08:08:53;26.37;;;6.63;;
21175;SDS011;10746;50.178;8.186;2022-11-20T08:11:20;13.67;;;6.20;;
21175;SDS011;10746;50.178;8.186;2022-11-20T08:14:05;15.73;;;6.03;;
21175;SDS011;10746;50.178;8.186;2022-11-20T08:16:37;17.83;;;6.53;;
21175;SDS011;10746;50.178;8.186;2022-11-20T08:19:04;17.10;;;7.23;;
21175;SDS011;10746;50.178;8.186;2022-11-20T08:21:31;18.40;;;7.20;;
21175;SDS011;10746;50.178;8.186;2022-11-20T08:24:01;15.30;;;5.97;;
21175;SDS011;10746;50.178;8.186;2022-11-20T08:26:29;14.83;;;6.50;;
21175;SDS011;10746;50.178;8.186;2022-11-20T08:28:55;12.03;;;6.23;;
21175;SDS011;10746;50.178;8.186;2022-11-20T08:31:23;18.23;;;9.07;;
21175;SDS011;10746;50.178;8.186;2022-11-20T08:33:51;8.43;;;5.37;;
21175;SDS011;10746;50.178;8.186;2022-11-20T08:36:19;11.73;;;5.80;;
21175;SDS011;10746;50.178;8.186;2022-11-20T08:38:46;10.50;;;5.53;;
21175;SDS011;10746;50.178;8.186;2022-11-20T08:41:15;5.43;;;3.97;;
21175;SDS011;10746;50.178;8.186;2022-11-20T08:43:53;7.57;;;4.60;;
21175;SDS011;10746;50.178;8.186;2022-11-20T08:46:22;8.77;;;5.20;;
21175;SDS011;10746;50.178;8.186;2022-11-20T08:48:50;8.33;;;4.73;;
21175;SDS011;10746;50.178;8.186;2022-11-20T08:51:17;6.77;;;4.17;;
21175;SDS011;10746;50.178;8.186;2022-11-20T08:53:45;7.73;;;4.73;;
21175;SDS011;10746;50.178;8.186;2022-11-20T08:56:13;6.90;;;4.30;;
21175;SDS011;10746;50.178;8.186;2022-11-20T08:58:41;5.90;;;4.30;;
21175;SDS011;10746;50.178;8.186;2022-11-20T09:01:08;6.63;;;4.37;;
21175;SDS011;10746;50.178;8.186;2022-11-20T09:03:35;6.03;;;3.97;;
21175;SDS011;10746;50.178;8.186;2022-11-20T09:06:02;6.33;;;4.03;;
21175;SDS011;10746;50.178;8.186;2022-11-20T09:08:32;6.40;;;3.40;;
21175;SDS011;10746;50.178;8.186;2022-11-20T09:10:59;4.60;;;3.27;;
21175;SDS011;10746;50.178;8.186;2022-11-20T09:13:26;4.67;;;3.97;;
21175;SDS011;10746;50.178;8.186;2022-11-20T09:15:55;7.37;;;4.87;;
21175;SDS011;10746;50.178;8.186;2022-11-20T09:18:23;6.07;;;3.87;;
21175;SDS011;10746;50.178;8.186;2022-11-20T09:20:50;6.37;;;4.87;;
21175;SDS011;10746;50.178;8.186;2022-11-20T09:23:17;6.40;;;4.53;;
21175;SDS011;10746;50.178;8.186;2022-11-20T09:25:44;8.17;;;5.93;;
21175;SDS011;10746;50.178;8.186;2022-11-20T09:28:11;9.10;;;5.57;;
21175;SDS011;10746;50.178;8.186;2022-11-20T09:30:38;6.87;;;4.30;;
21175;SDS011;10746;50.178;8.186;2022-11-20T09:33:07;8.07;;;5.07;;
21175;SDS011;10746;50.178;8.186;2022-11-20T09:35:33;5.37;;;3.70;;
21175;SDS011;10746;50.178;8.186;2022-11-20T09:38:09;12.20;;;7.67;;
21175;SDS011;10746;50.178;8.186;2022-11-20T09:40:38;7.07;;;5.17;;
21175;SDS011;10746;50.178;8.186;2022-11-20T09:43:12;5.20;;;4.07;;
21175;SDS011;10746;50.178;8.186;2022-11-20T09:45:48;4.50;;;4.00;;
21175;SDS011;10746;50.178;8.186;2022-11-20T09:48:28;4.83;;;3.90;;
21175;SDS011;10746;50.178;8.186;2022-11-20T09:51:21;4.83;;;3.20;;
21175;SDS011;10746;50.178;8.186;2022-11-20T09:54:00;5.27;;;3.40;;
21175;SDS011;10746;50.178;8.186;2022-11-20T09:56:38;3.97;;;3.27;;
21175;SDS011;10746;50.178;8.186;2022-11-20T09:59:08;5.43;;;3.40;;
21175;SDS011;10746;50.178;8.186;2022-11-20T10:01:49;5.83;;;3.70;;
21175;SDS011;10746;50.178;8.186;2022-11-20T10:04:18;5.67;;;4.17;;
21175;SDS011;10746;50.178;8.186;2022-11-20T10:06:47;3.33;;;3.03;;
21175;SDS011;10746;50.178;8.186;2022-11-20T10:09:21;5.70;;;4.00;;
21175;SDS011;10746;50.178;8.186;2022-11-20T10:11:56;9.77;;;4.70;;
21175;SDS011;10746;50.178;8.186;2022-11-20T10:14:34;8.23;;;5.37;;
21175;SDS011;10746;50.178;8.186;2022-11-20T10:17:11;13.50;;;8.30;;
21175;SDS011;10746;50.178;8.186;2022-11-20T10:19:50;6.00;;;4.23;;
21175;SDS011;10746;50.178;8.186;2022-11-20T10:22:31;3.70;;;3.17;;
21175;SDS011;10746;50.178;8.186;2022-11-20T10:25:11;4.87;;;3.30;;
21175;SDS011;10746;50.178;8.186;2022-11-20T10:27:50;3.47;;;3.17;;
21175;SDS011;10746;50.178;8.186;2022-11-20T10:30:40;4.80;;;3.67;;
21175;SDS011;10746;50.178;8.186;2022-11-20T10:33:12;6.57;;;4.70;;
21175;SDS011;10746;50.178;8.186;2022-11-20T10:35:44;7.63;;;5.33;;
21175;SDS011;10746;50.178;8.186;2022-11-20T10:38:17;5.50;;;4.00;;
21175;SDS011;10746;50.178;8.186;2022-11-20T10:40:48;5.97;;;4.03;;
21175;SDS011;10746;50.178;8.186;2022-11-20T10:43:19;6.13;;;3.70;;
21175;SDS011;10746;50.178;8.186;2022-11-20T10:45:52;5.17;;;3.63;;
21175;SDS011;10746;50.178;8.186;2022-11-20T10:48:24;7.23;;;4.97;;
21175;SDS011;10746;50.178;8.186;2022-11-20T10:50:57;7.03;;;5.10;;
21175;SDS011;10746;50.178;8.186;2022-11-20T10:53:47;7.03;;;5.50;;
21175;SDS011;10746;50.178;8.186;2022-11-20T10:56:22;6.13;;;4.63;;
21175;SDS011;10746;50.178;8.186;2022-11-20T10:59:02;7.87;;;4.50;;
21175;SDS011;10746;50.178;8.186;2022-11-20T11:01:39;6.37;;;4.00;;
21175;SDS011;10746;50.178;8.186;2022-11-20T11:04:13;8.10;;;5.60;;
21175;SDS011;10746;50.178;8.186;2022-11-20T11:06:51;6.80;;;4.60;;
21175;SDS011;10746;50.178;8.186;2022-11-20T11:09:24;6.13;;;4.03;;
21175;SDS011;10746;50.178;8.186;2022-11-20T11:11:58;6.90;;;4.50;;
21175;SDS011;10746;50.178;8.186;2022-11-20T11:14:25;6.10;;;4.07;;
21175;SDS011;10746;50.178;8.186;2022-11-20T11:16:53;4.43;;;3.97;;
21175;SDS011;10746;50.178;8.186;2022-11-20T11:19:21;5.53;;;4.17;;
21175;SDS011;10746;50.178;8.186;2022-11-20T11:21:49;7.40;;;4.77;;
21175;SDS011;10746;50.178;8.186;2022-11-20T11:24:20;7.40;;;5.37;;
21175;SDS011;10746;50.178;8.186;2022-11-20T11:26:55;6.27;;;4.13;;
21175;SDS011;10746;50.178;8.186;2022-11-20T11:29:24;5.30;;;3.77;;
21175;SDS011;10746;50.178;8.186;2022-11-20T11:32:02;6.37;;;4.57;;
21175;SDS011;10746;50.178;8.186;2022-11-20T11:34:30;6.47;;;4.17;;
21175;SDS011;10746;50.178;8.186;2022-11-20T11:36:59;7.07;;;4.73;;
21175;SDS011;10746;50.178;8.186;2022-11-20T11:39:28;6.33;;;4.33;;
21175;SDS011;10746;50.178;8.186;2022-11-20T11:41:56;6.67;;;4.90;;
21175;SDS011;10746;50.178;8.186;2022-11-20T11:44:24;7.80;;;4.03;;
21175;SDS011;10746;50.178;8.186;2022-11-20T11:47:17;7.37;;;4.97;;
21175;SDS011;10746;50.178;8.186;2022-11-20T11:50:00;10.77;;;6.30;;
21175;SDS011;10746;50.178;8.186;2022-11-20T11:52:29;15.10;;;8.30;;
21175;SDS011;10746;50.178;8.186;2022-11-20T11:55:01;8.80;;;5.97;;
21175;SDS011;10746;50.178;8.186;2022-11-20T11:57:33;10.37;;;5.30;;
21175;SDS011;10746;50.178;8.186;2022-11-20T12:00:15;9.13;;;5.77;;
21175;SDS011;10746;50.178;8.186;2022-11-20T12:02:49;7.77;;;5.13;;
21175;SDS011;10746;50.178;8.186;2022-11-20T12:05:24;7.20;;;5.27;;
21175;SDS011;10746;50.178;8.186;2022-11-20T12:07:56;11.97;;;6.47;;
21175;SDS011;10746;50.178;8.186;2022-11-20T12:10:33;15.10;;;8.77;;
21175;SDS011;10746;50.178;8.186;2022-11-20T12:13:10;10.50;;;6.30;;
21175;SDS011;10746;50.178;8.186;2022-11-20T12:15:51;10.43;;;6.07;;
21175;SDS011;10746;50.178;8.186;2022-11-20T12:18:20;9.07;;;6.03;;
21175;SDS011;10746;50.178;8.186;2022-11-20T12:20:50;15.77;;;8.33;;
21175;SDS011;10746;50.178;8.186;2022-11-20T12:23:28;8.80;;;5.60;;
21175;SDS011;10746;50.178;8.186;2022-11-20T12:26:10;10.87;;;6.57;;
21175;SDS011;10746;50.178;8.186;2022-11-20T12:28:48;8.67;;;5.30;;
21175;SDS011;10746;50.178;8.186;2022-11-20T12:31:30;11.23;;;5.80;;
21175;SDS011;10746;50.178;8.186;2022-11-20T12:34:24;8.83;;;5.87;;
21175;SDS011;10746;50.178;8.186;2022-11-20T12:37:16;8.10;;;5.23;;
21175;SDS011;10746;50.178;8.186;2022-11-20T12:39:58;7.93;;;4.80;;
21175;SDS011;10746;50.178;8.186;2022-11-20T12:42:42;7.90;;;4.90;;
21175;SDS011;10746;50.178;8.186;2022-11-20T12:54:59;11.63;;;5.70;;
21175;SDS011;10746;50.178;8.186;2022-11-20T12:57:50;8.13;;;4.77;;
21175;SDS011;10746;50.178;8.186;2022-11-20T13:00:20;7.60;;;5.00;;
21175;SDS011;10746;50.178;8.186;2022-11-20T13:03:10;6.67;;;4.90;;
21175;SDS011;10746;50.178;8.186;2022-11-20T13:06:00;6.70;;;4.90;;
21175;SDS011;10746;50.178;8.186;2022-11-20T13:08:33;9.30;;;5.30;;
21175;SDS011;10746;50.178;8.186;2022-11-20T13:11:04;10.23;;;5.80;;
21175;SDS011;10746;50.178;8.186;2022-11-20T13:13:40;11.07;;;6.30;;
21175;SDS011;10746;50.178;8.186;2022-11-20T13:16:15;11.13;;;5.93;;
21175;SDS011;10746;50.178;8.186;2022-11-20T13:18:45;10.73;;;6.17;;
21175;SDS011;10746;50.178;8.186;2022-11-20T13:21:13;11.53;;;6.37;;
21175;SDS011;10746;50.178;8.186;2022-11-20T13:23:44;10.10;;;6.43;;
21175;SDS011;10746;50.178;8.186;2022-11-20T13:26:17;11.10;;;6.57;;
21175;SDS011;10746;50.178;8.186;2022-11-20T13:28:46;11.53;;;6.47;;
21175;SDS011;10746;50.178;8.186;2022-11-20T13:31:25;10.90;;;6.37;;
21175;SDS011;10746;50.178;8.186;2022-11-20T13:33:56;13.03;;;7.53;;
21175;SDS011;10746;50.178;8.186;2022-11-20T13:36:26;17.47;;;10.00;;
21175;SDS011;10746;50.178;8.186;2022-11-20T13:38:55;10.93;;;6.60;;
21175;SDS011;10746;50.178;8.186;2022-11-20T13:41:24;11.80;;;6.60;;
21175;SDS011;10746;50.178;8.186;2022-11-20T13:43:57;10.23;;;6.57;;
21175;SDS011;10746;50.178;8.186;2022-11-20T13:46:37;11.87;;;6.43;;
21175;SDS011;10746;50.178;8.186;2022-11-20T13:49:09;13.17;;;6.83;;
21175;SDS011;10746;50.178;8.186;2022-11-20T13:51:42;12.03;;;6.53;;
21175;SDS011;10746;50.178;8.186;2022-11-20T13:54:39;11.50;;;6.47;;
21175;SDS011;10746;50.178;8.186;2022-11-20T13:57:30;10.30;;;6.03;;
21175;SDS011;10746;50.178;8.186;2022-11-20T14:00:12;13.83;;;7.13;;
21175;SDS011;10746;50.178;8.186;2022-11-20T14:02:42;15.27;;;7.57;;
21175;SDS011;10746;50.178;8.186;2022-11-20T14:05:14;17.07;;;7.97;;
21175;SDS011;10746;50.178;8.186;2022-11-20T14:07:46;14.07;;;7.73;;
21175;SDS011;10746;50.178;8.186;2022-11-20T14:10:22;19.13;;;9.93;;
21175;SDS011;10746;50.178;8.186;2022-11-20T14:12:52;17.47;;;8.40;;
21175;SDS011;10746;50.178;8.186;2022-11-20T14:15:27;13.27;;;7.80;;
21175;SDS011;10746;50.178;8.186;2022-11-20T14:17:56;12.23;;;7.53;;
21175;SDS011;10746;50.178;8.186;2022-11-20T14:20:23;13.93;;;7.53;;
21175;SDS011;10746;50.178;8.186;2022-11-20T14:22:52;36.70;;;19.67;;
21175;SDS011;10746;50.178;8.186;2022-11-20T14:25:21;14.03;;;7.73;;
21175;SDS011;10746;50.178;8.186;2022-11-20T14:27:53;16.17;;;9.50;;
21175;SDS011;10746;50.178;8.186;2022-11-20T14:30:22;16.20;;;7.43;;
21175;SDS011;10746;50.178;8.186;2022-11-20T14:32:51;15.53;;;8.20;;
21175;SDS011;10746;50.178;8.186;2022-11-20T14:35:23;13.50;;;7.40;;
21175;SDS011;10746;50.178;8.186;2022-11-20T14:37:52;12.83;;;7.27;;
21175;SDS011;10746;50.178;8.186;2022-11-20T14:40:25;15.63;;;7.60;;
21175;SDS011;10746;50.178;8.186;2022-11-20T14:42:56;13.97;;;7.63;;
21175;SDS011;10746;50.178;8.186;2022-11-20T14:45:24;22.97;;;11.40;;
21175;SDS011;10746;50.178;8.186;2022-11-20T14:47:52;12.80;;;7.60;;
21175;SDS011;10746;50.178;8.186;2022-11-20T14:50:22;15.73;;;9.17;;
21175;SDS011;10746;50.178;8.186;2022-11-20T14:52:51;11.97;;;7.20;;
21175;SDS011;10746;50.178;8.186;2022-11-20T14:55:26;11.57;;;6.57;;
21175;SDS011;10746;50.178;8.186;2022-11-20T14:57:59;15.70;;;8.50;;
21175;SDS011;10746;50.178;8.186;2022-11-20T15:00:27;14.20;;;6.90;;
21175;SDS011;10746;50.178;8.186;2022-11-20T15:02:55;12.43;;;6.53;;
21175;SDS011;10746;50.178;8.186;2022-11-20T15:05:23;10.87;;;6.33;;